Time;durP1;ratioP1;P1;durP2;ratioP2;P2;SDS_P1;SDS_P2;PMS_P1;PMS_P2;Temp;Humidity;BMP_temperature;BMP_pressure;BME280_temperature;BME280_humidity;BME280_pressure;Samples;Min_cycle;Max_cycle;Signal;HPM_P1;HPM_P2
2021/08/08 00:02:24;;;;;;;4.72;2.67;;;;;;;15.03;87.39;99091.19;5060129;28;20048;-47
2021/08/08 00:04:53;;;;;;;7.22;3.83;;;;;;;14.99;87.42;99096.00;5059659;28;20371;-44
2021/08/08 00:07:19;;;;;;;4.32;3.13;;;;;;;15.00;87.32;99089.22;5059509;28;20123;-45
2021/08/08 00:09:46;;;;;;;4.57;2.80;;;;;;;15.00;87.41;99094.81;5057479;28;20044;-49
2021/08/08 00:12:13;;;;;;;5.03;3.42;;;;;;;14.98;87.41;99100.00;5060742;28;20512;-46
2021/08/08 00:14:40;;;;;;;4.40;3.13;;;;;;;14.97;87.52;99084.47;5059385;28;20688;-48
2021/08/08 00:17:08;;;;;;;7.82;2.70;;;;;;;14.97;87.50;99090.06;5059220;28;20049;-51
2021/08/08 00:19:35;;;;;;;7.25;3.05;;;;;;;14.96;87.43;99096.81;5060659;28;20056;-46
2021/08/08 00:22:02;;;;;;;6.20;2.88;;;;;;;14.98;87.24;99104.78;5059339;28;20468;-44
2021/08/08 00:24:34;;;;;;;3.67;2.40;;;;;;;14.96;87.36;99110.75;5059159;28;20406;-47
2021/08/08 00:27:01;;;;;;;5.93;2.38;;;;;;;14.92;87.53;99110.03;5056753;28;20513;-50
2021/08/08 00:29:28;;;;;;;3.42;2.17;;;;;;;14.93;87.65;99113.59;5057216;28;20045;-51
2021/08/08 00:31:55;;;;;;;8.00;2.55;;;;;;;14.91;87.42;99108.44;5059318;28;20067;-44
2021/08/08 00:34:21;;;;;;;4.75;2.25;;;;;;;14.91;87.49;99100.06;5071772;28;20459;-45
2021/08/08 00:36:49;;;;;;;7.10;3.10;;;;;;;14.91;87.45;99111.22;5077267;28;21477;-47
2021/08/08 00:39:17;;;;;;;6.38;2.20;;;;;;;14.91;87.48;99111.22;5080124;28;20044;-44
2021/08/08 00:41:44;;;;;;;2.65;2.05;;;;;;;14.90;87.54;99109.66;5078796;28;20059;-46
2021/08/08 00:44:11;;;;;;;6.18;1.75;;;;;;;14.89;87.74;99116.41;5059496;28;20046;-44
2021/08/08 00:46:38;;;;;;;2.97;2.22;;;;;;;14.88;87.81;99111.28;5078959;28;20044;-51
2021/08/08 00:49:05;;;;;;;3.17;2.28;;;;;;;14.93;87.66;99119.19;5079128;28;20044;-45
2021/08/08 00:51:33;;;;;;;4.47;2.30;;;;;;;14.92;87.70;99110.03;5080360;28;20163;-51
2021/08/08 00:54:01;;;;;;;3.05;2.33;;;;;;;14.92;87.50;99121.16;5079683;28;20059;-49
2021/08/08 00:56:29;;;;;;;4.03;1.83;;;;;;;14.92;87.57;99115.59;5079732;28;20040;-45
2021/08/08 00:58:56;;;;;;;2.42;1.50;;;;;;;14.86;87.79;99117.25;5078639;28;20528;-51
2021/08/08 01:01:27;;;;;;;4.78;1.88;;;;;;;14.86;87.96;99117.25;5079824;28;20059;-47
2021/08/08 01:03:58;;;;;;;3.00;2.30;;;;;;;14.86;87.90;99117.25;5080979;28;20040;-45
2021/08/08 01:06:37;;;;;;;2.03;1.75;;;;;;;14.86;87.90;99108.88;5059881;28;20048;-50
2021/08/08 01:09:06;;;;;;;3.63;1.85;;;;;;;14.83;88.09;99125.63;5079187;28;20443;-46
2021/08/08 01:11:35;;;;;;;3.38;1.92;;;;;;;14.82;87.90;99124.84;5078021;28;20060;-45
2021/08/08 01:14:04;;;;;;;2.15;1.48;;;;;;;14.82;87.99;99124.84;5080858;28;20036;-47
2021/08/08 01:16:32;;;;;;;2.30;1.50;;;;;;;14.85;87.90;99129.56;5079262;28;20151;-47
2021/08/08 01:19:03;;;;;;;3.33;1.50;;;;;;;14.86;87.86;99122.81;5079638;28;20633;-46
2021/08/08 01:21:32;;;;;;;1.77;1.58;;;;;;;14.85;87.91;99118.44;5076983;28;20044;-48
2021/08/08 01:24:00;;;;;;;2.22;1.40;;;;;;;14.87;87.87;99124.41;5079521;28;20101;-48
2021/08/08 01:26:30;;;;;;;3.35;1.30;;;;;;;14.88;87.83;99119.63;5077883;28;20497;-50
2021/08/08 01:28:59;;;;;;;3.13;1.60;;;;;;;14.88;87.71;99114.81;5078095;28;20119;-44
2021/08/08 01:31:26;;;;;;;2.38;1.02;;;;;;;14.85;87.78;99126.78;5077493;28;20050;-46
2021/08/08 01:33:53;;;;;;;1.67;1.58;;;;;;;14.83;87.71;99129.22;5078680;28;20063;-51
2021/08/08 01:36:20;;;;;;;2.47;1.20;;;;;;;14.83;88.01;99129.22;5079311;28;20442;-46
2021/08/08 01:39:10;;;;;;;3.05;1.60;;;;;;;14.80;88.20;99130.03;5078409;28;20157;-46
2021/08/08 01:42:05;;;;;;;2.25;1.48;;;;;;;14.81;88.20;99137.19;5079147;28;20119;-46
2021/08/08 01:44:38;;;;;;;4.85;1.65;;;;;;;14.80;88.10;99123.69;5080771;28;20060;-49
2021/08/08 01:47:06;;;;;;;3.42;1.40;;;;;;;14.81;88.05;99137.19;5082736;28;20051;-47
2021/08/08 01:49:34;;;;;;;4.22;1.85;;;;;;;14.84;88.02;99146.72;5081483;28;20162;-46
2021/08/08 01:52:03;;;;;;;4.72;1.65;;;;;;;14.87;87.79;99140.31;5081727;28;20052;-48
2021/08/08 01:54:31;;;;;;;3.05;1.85;;;;;;;14.80;88.16;99132.81;5082641;28;20056;-52
2021/08/08 01:56:59;;;;;;;4.63;1.55;;;;;;;14.83;87.97;99145.13;5081339;28;20040;-47
2021/08/08 01:59:26;;;;;;;2.88;1.27;;;;;;;14.81;88.06;99134.41;5080572;28;20052;-46
2021/08/08 02:01:52;;;;;;;1.85;1.70;;;;;;;14.81;88.05;99142.75;5081813;28;20040;-44
2021/08/08 02:04:25;;;;;;;4.10;1.70;;;;;;;14.81;88.15;99142.75;5082446;28;20035;-44
2021/08/08 02:06:52;;;;;;;;;;;;;;;14.76;88.42;99142.41;5081361;28;20216;-52
2021/08/08 02:09:19;;;;;;;1.85;1.50;;;;;;;14.76;87.96;99140.44;5081269;28;19934;-48
2021/08/08 02:11:46;;;;;;;2.88;1.63;;;;;;;14.79;88.03;99150.75;5081794;28;20459;-45
2021/08/08 02:14:13;;;;;;;4.10;1.73;;;;;;;14.79;87.98;99142.38;5081304;28;20067;-47
2021/08/08 02:16:39;;;;;;;2.38;1.42;;;;;;;14.81;87.91;99137.19;5081064;28;20409;-45
2021/08/08 02:19:06;;;;;;;1.63;1.52;;;;;;;14.81;87.75;99128.84;5081635;28;20126;-44
2021/08/08 02:21:34;;;;;;;2.65;1.40;;;;;;;14.77;87.99;99139.22;5080413;28;20538;-46
2021/08/08 02:24:00;;;;;;;2.65;1.40;;;;;;;14.74;88.10;99142.03;5082515;28;20044;-47
2021/08/08 02:26:27;;;;;;;3.08;1.33;;;;;;;14.72;88.35;99142.44;5082688;28;20039;-46
2021/08/08 02:28:54;;;;;;;2.53;1.40;;;;;;;14.72;88.07;99138.88;5082135;28;20036;-46
2021/08/08 02:31:21;;;;;;;1.75;1.45;;;;;;;14.70;88.29;99147.63;5080231;28;20374;-48
2021/08/08 02:33:51;;;;;;;1.92;1.60;;;;;;;14.71;88.31;99146.44;5081029;28;20043;-54
2021/08/08 02:36:18;;;;;;;2.95;1.52;;;;;;;14.69;88.26;99146.06;5082060;28;20055;-46
2021/08/08 02:38:45;;;;;;;3.17;1.40;;;;;;;14.70;88.45;99147.63;5081913;28;20040;-47
2021/08/08 02:41:12;;;;;;;3.45;1.48;;;;;;;14.68;88.51;99150.03;5078291;28;20074;-46
2021/08/08 02:43:38;;;;;;;2.08;1.20;;;;;;;14.67;88.53;99148.44;5065755;28;20116;-45
2021/08/08 02:46:05;;;;;;;2.13;1.30;;;;;;;14.66;88.57;99144.09;5082148;28;20058;-49
2021/08/08 02:48:35;;;;;;;2.60;1.48;;;;;;;14.66;88.66;99151.66;5062842;28;20040;-45
2021/08/08 02:51:02;;;;;;;4.53;1.25;;;;;;;14.66;88.74;99157.22;5080214;28;20048;-49
2021/08/08 02:53:28;;;;;;;1.80;1.30;;;;;;;14.68;88.60;99152.84;5063394;28;20085;-50
2021/08/08 02:55:56;;;;;;;2.75;1.70;;;;;;;14.67;88.77;99158.81;5081732;28;20065;-49
2021/08/08 02:58:22;;;;;;;1.65;1.30;;;;;;;14.68;88.59;99163.97;5082333;28;20143;-47
2021/08/08 03:00:49;;;;;;;1.58;1.25;;;;;;;14.69;88.69;99168.34;5079393;28;20585;-50
2021/08/08 03:03:16;;;;;;;1.42;1.17;;;;;;;14.69;88.73;99162.78;5080251;28;20055;-48
2021/08/08 03:05:43;;;;;;;1.55;1.10;;;;;;;14.69;88.60;99171.13;5063640;28;20052;-51
2021/08/08 03:08:11;;;;;;;1.42;1.23;;;;;;;14.68;88.53;99166.75;5081684;28;20477;-46
2021/08/08 03:10:37;;;;;;;1.73;1.27;;;;;;;14.67;88.67;99159.59;5062756;28;20101;-44
2021/08/08 03:13:05;;;;;;;0.90;0.90;;;;;;;14.64;88.67;99165.97;5080170;28;20497;-49
2021/08/08 03:15:31;;;;;;;2.13;1.10;;;;;;;14.62;88.56;99162.81;5080056;28;20107;-45
2021/08/08 03:17:58;;;;;;;1.23;0.90;;;;;;;14.60;88.54;99170.81;5061965;28;20052;-48
2021/08/08 03:20:26;;;;;;;1.13;0.98;;;;;;;14.60;88.57;99162.44;5060813;28;20048;-48
2021/08/08 03:22:53;;;;;;;3.28;1.65;;;;;;;14.56;88.50;99167.28;5079435;28;20401;-51
2021/08/08 03:25:20;;;;;;;2.28;1.10;;;;;;;14.57;88.53;99172.41;5078994;28;20044;-49
2021/08/08 03:27:50;;;;;;;2.70;0.90;;;;;;;14.56;88.70;99181.19;5079495;28;21027;-49
2021/08/08 03:30:20;;;;;;;0.60;0.60;;;;;;;14.55;89.03;99174.03;5079284;28;20052;-45
2021/08/08 03:32:47;;;;;;;0.75;0.70;;;;;;;14.56;89.03;99167.28;5081025;28;20366;-46
2021/08/08 03:35:14;;;;;;;1.13;0.57;;;;;;;14.54;88.96;99173.22;5075796;28;20052;-47
2021/08/08 03:37:41;;;;;;;1.15;0.57;;;;;;;14.54;89.16;99169.66;5079191;28;20504;-49
2021/08/08 03:40:08;;;;;;;0.60;0.60;;;;;;;14.53;89.01;99176.44;5078717;28;20043;-44
2021/08/08 03:42:35;;;;;;;0.93;0.88;;;;;;;14.55;88.83;99174.84;5079652;28;20126;-45
2021/08/08 03:45:02;;;;;;;1.48;0.55;;;;;;;14.53;88.96;99177.22;5061528;28;20051;-47
2021/08/08 03:47:32;;;;;;;3.22;0.80;;;;;;;14.52;88.96;99180.41;5079358;28;20048;-48
2021/08/08 03:49:59;;;;;;;1.45;0.88;;;;;;;14.54;88.85;99197.50;5079027;28;20091;-44
2021/08/08 03:52:29;;;;;;;1.33;0.60;;;;;;;14.52;89.32;99185.97;5079415;28;20608;-50
2021/08/08 03:54:55;;;;;;;0.88;0.60;;;;;;;14.55;89.02;99185.16;5080407;28;20126;-44
2021/08/08 03:57:22;;;;;;;1.40;1.30;;;;;;;14.56;89.07;99186.78;5078780;28;20058;-47
2021/08/08 03:59:51;;;;;;;2.45;0.70;;;;;;;14.55;89.29;99180.41;5079858;28;20110;-45
2021/08/08 04:02:18;;;;;;;2.05;0.65;;;;;;;14.58;89.14;99195.50;5059677;28;20142;-46
2021/08/08 04:04:45;;;;;;;3.80;0.82;;;;;;;14.57;89.25;99182.75;5079456;28;20105;-44
2021/08/08 04:07:12;;;;;;;0.60;0.60;;;;;;;14.58;88.96;99189.94;5077657;28;20123;-45
2021/08/08 04:09:39;;;;;;;2.28;0.68;;;;;;;14.57;89.19;99194.69;5078219;28;20067;-46
2021/08/08 04:12:07;;;;;;;0.70;0.70;;;;;;;14.57;89.16;99189.13;5078929;28;21289;-44
2021/08/08 04:14:37;;;;;;;0.95;0.70;;;;;;;14.56;89.15;99189.56;5078407;28;20055;-44
2021/08/08 04:17:05;;;;;;;2.35;0.90;;;;;;;14.53;89.26;99196.69;5079574;28;20044;-44
2021/08/08 04:19:35;;;;;;;1.35;1.00;;;;;;;14.51;88.99;99190.75;5078081;28;20071;-48
2021/08/08 04:22:03;;;;;;;1.00;0.57;;;;;;;14.51;89.53;99195.53;5079016;28;20056;-46
2021/08/08 04:24:31;;;;;;;4.35;0.80;;;;;;;14.51;89.43;99195.53;5078751;28;20044;-45
2021/08/08 04:27:00;;;;;;;1.92;1.02;;;;;;;14.52;89.52;99208.25;5078517;28;20397;-48
2021/08/08 04:29:27;;;;;;;1.92;1.10;;;;;;;14.54;89.32;99211.44;5077637;28;20101;-45
2021/08/08 04:32:12;;;;;;;1.27;0.90;;;;;;;14.51;89.13;99212.25;5062111;28;20413;-44
2021/08/08 04:34:59;;;;;;;1.92;1.20;;;;;;;14.53;89.33;99221.00;5075484;28;20576;-44
2021/08/08 04:37:47;;;;;;;2.85;0.93;;;;;;;14.52;89.33;99220.19;5075895;28;20048;-44
2021/08/08 04:40:35;;;;;;;1.10;1.00;;;;;;;14.51;89.50;99226.97;5075800;28;20044;-45
2021/08/08 04:43:22;;;;;;;2.30;1.02;;;;;;;14.54;89.37;99231.72;5076311;28;20044;-44
2021/08/08 04:46:09;;;;;;;5.07;1.27;;;;;;;14.53;89.40;99229.34;5076129;28;20080;-48
2021/08/08 04:48:56;;;;;;;3.03;1.52;;;;;;;14.54;89.14;99234.50;5076238;28;20112;-44
2021/08/08 04:51:43;;;;;;;1.48;1.30;;;;;;;14.50;89.18;99238.53;5074915;28;20059;-46
2021/08/08 04:54:30;;;;;;;2.10;1.30;;;;;;;14.51;89.20;99240.09;5076112;28;20511;-49
2021/08/08 04:57:17;;;;;;;1.17;1.08;;;;;;;14.51;89.25;99240.09;5075074;28;20490;-44
2021/08/08 05:00:05;;;;;;;1.45;1.00;;;;;;;14.49;89.04;99248.06;5076431;28;20066;-49
2021/08/08 05:02:52;;;;;;;2.30;0.93;;;;;;;14.45;89.23;99256.47;5075995;28;20048;-44
2021/08/08 05:05:40;;;;;;;1.48;0.70;;;;;;;14.47;89.04;99262.41;5075796;28;20043;-44
2021/08/08 05:08:27;;;;;;;1.70;0.70;;;;;;;14.47;89.10;99259.63;5075715;28;20055;-45
2021/08/08 05:11:18;;;;;;;2.80;1.02;;;;;;;14.47;89.07;99267.97;5077112;28;20508;-46
2021/08/08 05:14:05;;;;;;;2.15;0.90;;;;;;;14.44;88.90;99273.56;5074679;28;20071;-48
2021/08/08 05:16:53;;;;;;;0.98;0.75;;;;;;;14.45;89.05;99275.16;5077612;28;20063;-46
2021/08/08 05:19:40;;;;;;;1.15;0.70;;;;;;;14.43;88.88;99277.53;5079684;28;20056;-49
2021/08/08 05:22:27;;;;;;;1.95;0.70;;;;;;;14.48;88.76;99280.69;5078786;28;20063;-45
2021/08/08 05:25:15;;;;;;;4.43;0.85;;;;;;;14.50;88.91;99283.06;5079069;28;20044;-45
2021/08/08 05:28:02;;;;;;;1.75;0.82;;;;;;;14.45;88.80;99275.16;5079408;28;20474;-45
2021/08/08 05:30:49;;;;;;;0.82;0.55;;;;;;;14.45;88.93;99277.94;5065043;28;20048;-44
2021/08/08 05:33:36;;;;;;;1.30;0.93;;;;;;;14.44;88.79;99282.72;5079680;28;20056;-45
2021/08/08 05:36:23;;;;;;;1.08;0.50;;;;;;;14.44;88.91;99273.56;5079919;28;20058;-45
2021/08/08 05:39:10;;;;;;;1.52;0.50;;;;;;;14.40;89.00;99281.91;5079132;28;20063;-47
2021/08/08 05:41:57;;;;;;;1.27;1.17;;;;;;;14.40;89.14;99286.72;5077692;28;20417;-46
2021/08/08 05:44:45;;;;;;;0.50;0.45;;;;;;;14.38;89.14;99286.31;5078998;28;20056;-50
2021/08/08 05:47:32;;;;;;;1.95;0.75;;;;;;;14.40;89.28;99292.28;5063205;28;20040;-45
2021/08/08 05:50:19;;;;;;;0.93;0.50;;;;;;;14.41;89.23;99296.63;5079178;28;20056;-49
2021/08/08 05:53:07;;;;;;;0.60;0.40;;;;;;;14.42;89.17;99295.47;5080103;28;20048;-45
2021/08/08 05:55:54;;;;;;;3.50;1.17;;;;;;;14.45;89.14;99308.56;5077775;28;20044;-47
2021/08/08 05:58:43;;;;;;;1.13;1.02;;;;;;;14.50;88.96;99308.94;5079453;28;20531;-44
2021/08/08 06:01:31;;;;;;;1.08;0.50;;;;;;;14.53;89.13;99315.69;5078725;28;20048;-45
2021/08/08 06:04:18;;;;;;;1.58;0.80;;;;;;;14.57;88.82;99308.09;5077872;28;20125;-45
2021/08/08 06:07:05;;;;;;;1.10;1.00;;;;;;;14.61;88.71;99317.22;5077823;28;20559;-50
2021/08/08 06:09:52;;;;;;;0.85;0.57;;;;;;;14.60;88.70;99324.78;5079650;28;20058;-46
2021/08/08 06:12:39;;;;;;;1.52;0.50;;;;;;;14.58;88.79;99318.84;5077626;28;20052;-47
2021/08/08 06:15:26;;;;;;;0.52;0.45;;;;;;;14.59;88.49;99322.41;5078471;28;20048;-45
2021/08/08 06:18:15;;;;;;;0.50;0.50;;;;;;;14.56;88.63;99320.44;5077427;28;20074;-49
2021/08/08 06:21:03;;;;;;;1.55;0.70;;;;;;;14.60;88.37;99332.34;5077390;28;20040;-47
2021/08/08 06:23:51;;;;;;;4.70;0.80;;;;;;;14.59;88.25;99336.31;5076109;28;20056;-45
2021/08/08 06:26:38;;;;;;;0.82;0.50;;;;;;;14.62;88.11;99336.31;5078069;28;20409;-47
2021/08/08 06:29:25;;;;;;;1.85;0.68;;;;;;;14.61;88.04;99334.72;5079160;28;20047;-48
2021/08/08 06:32:12;;;;;;;1.40;0.70;;;;;;;14.68;87.99;99347.03;5079556;28;20040;-44
2021/08/08 06:34:59;;;;;;;1.00;0.60;;;;;;;14.78;87.74;99348.94;5076753;28;20048;-47
2021/08/08 06:37:46;;;;;;;2.47;0.90;;;;;;;14.82;87.68;99352.53;5080600;28;20048;-44
2021/08/08 06:40:34;;;;;;;0.82;0.80;;;;;;;14.89;87.53;99344.91;5077060;28;20428;-44
2021/08/08 06:43:21;;;;;;;6.97;0.80;;;;;;;14.90;87.30;99362.44;5079245;28;20048;-45
2021/08/08 06:46:08;;;;;;;3.60;1.08;;;;;;;14.85;87.08;99360.06;5076149;28;20051;-43
2021/08/08 06:48:56;;;;;;;2.95;1.00;;;;;;;14.82;87.23;99367.25;5077139;28;20097;-45
2021/08/08 06:51:43;;;;;;;0.90;0.80;;;;;;;14.83;87.17;99377.19;5078309;28;20048;-46
2021/08/08 06:54:30;;;;;;;3.35;2.58;;;;;;;14.82;86.97;99372.81;5077399;28;20048;-49
2021/08/08 06:57:28;;;;;;;2.10;0.60;;;;;;;14.80;87.13;99380.00;5078762;28;20044;-44
2021/08/08 07:00:17;;;;;;;3.20;0.77;;;;;;;14.75;87.09;99369.25;5076966;28;20048;-49
2021/08/08 07:03:24;;;;;;;1.30;0.80;;;;;;;14.71;87.40;99380.44;5079584;28;20056;-45
2021/08/08 07:06:11;;;;;;;4.13;0.68;;;;;;;14.70;87.34;99383.63;5076359;28;20120;-45
2021/08/08 07:08:59;;;;;;;2.20;0.70;;;;;;;14.72;87.16;99390.38;5079327;28;20108;-43
2021/08/08 07:11:46;;;;;;;1.38;0.50;;;;;;;14.70;87.28;99397.56;5076300;28;20059;-45
2021/08/08 07:14:35;;;;;;;2.53;0.60;;;;;;;14.64;87.22;99395.19;5078832;28;20060;-44
2021/08/08 07:17:22;;;;;;;2.40;0.45;;;;;;;14.63;87.15;99407.56;5074752;28;20055;-49
2021/08/08 07:20:10;;;;;;;1.23;0.70;;;;;;;14.65;87.22;99407.13;5077373;28;20048;-44
2021/08/08 07:22:57;;;;;;;1.35;0.73;;;;;;;14.59;87.30;99408.75;5077562;28;20047;-49
2021/08/08 07:25:44;;;;;;;0.60;0.60;;;;;;;14.61;87.33;99403.59;5076792;28;20048;-44
2021/08/08 07:28:31;;;;;;;3.65;1.08;;;;;;;14.61;87.27;99415.50;5077451;28;20147;-45
2021/08/08 07:31:19;;;;;;;1.35;0.90;;;;;;;14.66;87.39;99414.31;5077137;28;20062;-44
2021/08/08 07:34:06;;;;;;;3.70;1.02;;;;;;;14.71;87.43;99415.88;5075975;28;20064;-52
2021/08/08 07:36:53;;;;;;;2.13;1.38;;;;;;;14.78;87.39;99421.41;5075674;28;20645;-46
2021/08/08 07:39:40;;;;;;;2.88;1.23;;;;;;;14.76;87.32;99424.59;5077838;28;20052;-44
2021/08/08 07:42:27;;;;;;;1.80;1.13;;;;;;;14.73;87.46;99430.97;5078160;28;20625;-47
2021/08/08 07:45:15;;;;;;;2.88;1.20;;;;;;;14.72;87.50;99434.94;5076577;28;20047;-45
2021/08/08 07:48:02;;;;;;;3.65;2.17;;;;;;;14.70;87.39;99442.13;5073569;28;20067;-50
2021/08/08 07:50:50;;;;;;;2.72;1.35;;;;;;;14.71;87.52;99449.28;5078063;28;20134;-48
2021/08/08 07:53:37;;;;;;;4.70;1.58;;;;;;;14.71;87.44;99450.09;5077181;28;20066;-48
2021/08/08 07:56:24;;;;;;;5.55;2.65;;;;;;;14.75;87.35;99447.28;5076219;28;20105;-48
2021/08/08 07:59:11;;;;;;;2.17;1.27;;;;;;;14.75;87.27;99450.84;5078152;28;20062;-46
2021/08/08 08:01:58;;;;;;;2.10;1.30;;;;;;;14.70;87.23;99447.69;5077757;28;20047;-46
2021/08/08 08:04:49;;;;;;;3.22;1.30;;;;;;;14.73;87.35;99463.59;5077611;28;20135;-48
2021/08/08 08:07:38;;;;;;;3.92;1.45;;;;;;;14.76;87.06;99460.81;5079221;28;20048;-50
2021/08/08 08:10:26;;;;;;;1.85;1.35;;;;;;;14.80;86.99;99474.75;5062749;28;20762;-49
2021/08/08 08:13:13;;;;;;;2.15;1.10;;;;;;;14.81;86.69;99465.97;5078815;28;20152;-48
2021/08/08 08:16:00;;;;;;;4.30;1.40;;;;;;;14.78;86.47;99469.56;5078824;28;20048;-45
2021/08/08 08:18:47;;;;;;;3.13;1.38;;;;;;;14.68;86.71;99467.63;5079561;28;20059;-49
2021/08/08 08:21:35;;;;;;;2.17;0.95;;;;;;;14.69;86.63;99480.34;5077797;28;21464;-46
2021/08/08 08:24:22;;;;;;;4.35;1.40;;;;;;;14.66;86.72;99480.34;5078461;28;20040;-47
2021/08/08 08:27:09;;;;;;;2.20;1.35;;;;;;;14.60;86.53;99483.56;5064025;28;20059;-51
2021/08/08 08:29:58;;;;;;;5.78;1.35;;;;;;;14.53;86.67;99480.00;5074257;28;20105;-51
2021/08/08 08:32:45;;;;;;;6.40;1.50;;;;;;;14.47;86.88;99487.19;5078097;28;20056;-52
2021/08/08 08:35:33;;;;;;;3.08;1.55;;;;;;;14.41;86.70;99483.19;5077550;28;20829;-45
2021/08/08 08:38:20;;;;;;;4.45;2.13;;;;;;;14.44;86.77;99490.75;5076628;28;20052;-48
2021/08/08 08:41:08;;;;;;;10.15;2.28;;;;;;;14.47;86.75;99498.31;5077583;28;20139;-45
2021/08/08 08:43:56;;;;;;;3.75;1.70;;;;;;;14.46;86.54;99505.06;5077678;28;20489;-46
2021/08/08 08:46:45;;;;;;;6.90;3.10;;;;;;;14.45;86.51;99503.50;5077831;28;20845;-46
2021/08/08 08:49:33;;;;;;;15.45;3.15;;;;;;;14.43;86.40;99500.28;5049171;28;22367;-54
2021/08/08 08:52:26;;;;;;;7.35;3.03;;;;;;;14.48;85.96;99513.84;5077931;28;20856;-45
2021/08/08 08:55:13;;;;;;;10.05;3.83;;;;;;;14.47;85.84;99517.81;5076906;28;20044;-48
2021/08/08 08:58:00;;;;;;;9.90;3.17;;;;;;;14.52;85.54;99520.97;5078123;28;20082;-50
2021/08/08 09:00:47;;;;;;;11.80;2.90;;;;;;;14.57;85.54;99523.34;5077588;28;20052;-47
2021/08/08 09:03:34;;;;;;;9.98;3.00;;;;;;;14.55;85.26;99520.19;5076799;28;20062;-53
2021/08/08 09:06:23;;;;;;;5.93;2.63;;;;;;;14.56;85.11;99524.53;5074267;28;20165;-50
2021/08/08 09:09:10;;;;;;;9.60;3.42;;;;;;;14.54;85.05;99535.28;5078029;28;20512;-49
2021/08/08 09:11:58;;;;;;;10.48;3.45;;;;;;;14.52;84.80;99534.09;5076906;28;20062;-46
2021/08/08 09:14:45;;;;;;;10.20;3.28;;;;;;;14.51;84.52;99543.66;5078718;28;20052;-47
2021/08/08 09:17:39;;;;;;;12.75;3.55;;;;;;;14.43;84.12;99537.28;5077337;28;20547;-45
2021/08/08 09:20:31;;;;;;;9.07;3.35;;;;;;;14.41;84.21;99541.69;5076247;28;20048;-46
2021/08/08 09:23:18;;;;;;;12.20;3.20;;;;;;;14.51;84.33;99554.78;5077435;28;20048;-46
2021/08/08 09:26:05;;;;;;;10.40;3.20;;;;;;;14.61;83.75;99556.78;5077171;28;20052;-48
2021/08/08 09:29:10;;;;;;;10.23;4.28;;;;;;;14.64;82.55;99555.97;5076958;28;20159;-45
2021/08/08 09:31:59;;;;;;;8.38;3.25;;;;;;;14.70;82.88;99557.16;5077127;28;20090;-49
2021/08/08 09:34:46;;;;;;;10.23;3.22;;;;;;;14.70;82.33;99553.56;5075728;28;20152;-46
2021/08/08 09:37:34;;;;;;;9.63;3.05;;;;;;;14.73;82.29;99553.56;5076286;28;20052;-49
2021/08/08 09:40:21;;;;;;;12.73;2.80;;;;;;;14.71;82.14;99561.53;5075402;28;20075;-49
2021/08/08 09:43:12;;;;;;;10.38;2.85;;;;;;;14.70;81.82;99559.94;5077263;28;20054;-48
2021/08/08 09:45:59;;;;;;;16.33;4.57;;;;;;;14.73;81.68;99567.50;5062291;28;20055;-51
2021/08/08 09:48:46;;;;;;;10.50;2.58;;;;;;;14.70;81.56;99571.06;5076995;28;20059;-50
2021/08/08 09:51:47;;;;;;;9.27;3.60;;;;;;;14.72;80.73;99579.81;5076934;28;20054;-46
2021/08/08 09:54:37;;;;;;;5.75;2.60;;;;;;;14.80;80.93;99570.25;5076841;28;20047;-45
2021/08/08 09:57:24;;;;;;;12.82;3.92;;;;;;;14.94;80.54;99586.13;5076734;28;20108;-46
2021/08/08 10:00:31;;;;;;;5.53;2.28;;;;;;;15.13;79.51;99580.91;5078723;28;20848;-50
2021/08/08 10:03:19;;;;;;;6.78;2.33;;;;;;;15.30;79.80;99593.19;5080014;28;20058;-45
2021/08/08 10:06:11;;;;;;;12.57;3.65;;;;;;;15.38;79.46;99593.97;5079940;28;20920;-51
2021/08/08 10:09:00;;;;;;;6.57;2.53;;;;;;;15.39;79.08;99606.69;5080221;28;20052;-48
2021/08/08 10:11:50;;;;;;;8.02;2.25;;;;;;;15.37;79.05;99606.31;5079980;28;20052;-46
2021/08/08 10:14:37;;;;;;;5.47;2.85;;;;;;;15.27;78.78;99610.75;5080930;28;20047;-53
2021/08/08 10:17:28;;;;;;;11.80;2.63;;;;;;;15.31;78.83;99605.94;5080604;28;20052;-47
2021/08/08 10:20:16;;;;;;;8.07;2.90;;;;;;;15.32;78.20;99617.88;5080415;28;20564;-47
2021/08/08 10:23:03;;;;;;;12.63;3.10;;;;;;;15.35;77.93;99611.50;5078895;28;20044;-46
2021/08/08 10:25:51;;;;;;;6.40;2.33;;;;;;;15.41;77.85;99601.53;5081498;28;20052;-46
2021/08/08 10:28:39;;;;;;;5.93;2.20;;;;;;;15.55;77.85;99632.94;5078917;28;20059;-50
2021/08/08 10:31:29;;;;;;;9.65;2.28;;;;;;;15.73;76.75;99616.91;5078601;28;20052;-46
2021/08/08 10:34:30;;;;;;;8.15;3.17;;;;;;;15.91;75.67;99625.22;5079445;28;20445;-46
2021/08/08 10:37:23;;;;;;;7.07;2.08;;;;;;;15.93;75.65;99620.00;5081782;28;20051;-51
2021/08/08 10:40:12;;;;;;;11.85;2.42;;;;;;;15.91;75.55;99625.22;5081495;28;20051;-47
2021/08/08 10:43:00;;;;;;;4.78;2.13;;;;;;;15.92;75.23;99632.34;5081162;28;20052;-47
2021/08/08 10:45:47;;;;;;;10.05;2.45;;;;;;;16.00;74.74;99635.91;5078856;28;20405;-46
2021/08/08 10:48:36;;;;;;;4.70;1.48;;;;;;;16.17;74.60;99630.22;5079390;28;20060;-50
2021/08/08 10:51:25;;;;;;;9.00;4.03;;;;;;;16.30;74.43;99639.69;5080442;28;20052;-53
2021/08/08 10:54:12;;;;;;;7.13;1.90;;;;;;;16.45;74.14;99635.56;5063804;28;20055;-47
2021/08/08 10:57:12;;;;;;;7.82;2.97;;;;;;;16.54;73.09;99642.72;5078971;28;20272;-52
2021/08/08 11:00:12;;;;;;;5.90;1.60;;;;;;;16.86;72.29;99637.66;5079381;28;20605;-48
2021/08/08 11:03:17;;;;;;;4.28;1.60;;;;;;;17.32;70.56;99632.34;5079227;28;20056;-48
2021/08/08 11:06:04;;;;;;;6.22;1.58;;;;;;;17.73;72.20;99623.06;5078833;28;20043;-46
2021/08/08 11:08:57;;;;;;;8.00;2.42;;;;;;;18.10;70.76;99643.34;5080338;28;20052;-46
2021/08/08 11:11:44;;;;;;;4.07;1.60;;;;;;;18.30;70.44;99640.63;5080235;28;20058;-50
2021/08/08 11:14:31;;;;;;;5.47;1.75;;;;;;;18.40;69.19;99634.06;5080246;28;20047;-44
2021/08/08 11:17:25;;;;;;;5.82;1.92;;;;;;;18.73;68.01;99638.75;5079095;28;20063;-45
2021/08/08 11:20:13;;;;;;;8.07;3.30;;;;;;;18.96;67.90;99645.56;5080101;28;20041;-51
2021/08/08 11:23:04;;;;;;;6.82;1.77;;;;;;;19.03;67.35;99642.63;5079181;28;20052;-45
2021/08/08 11:25:51;;;;;;;5.57;1.65;;;;;;;18.90;66.58;99642.47;5079883;28;20044;-46
2021/08/08 11:28:38;;;;;;;7.50;2.30;;;;;;;18.75;66.62;99646.72;5078665;28;20056;-44
2021/08/08 11:31:30;;;;;;;9.30;2.85;;;;;;;18.55;66.63;99651.47;5079898;28;20048;-44
2021/08/08 11:34:23;;;;;;;13.68;1.80;;;;;;;18.30;65.06;99657.44;5076499;28;20051;-45
2021/08/08 11:37:10;;;;;;;8.48;1.85;;;;;;;18.31;66.63;99659.03;5078308;28;20424;-46
2021/08/08 11:39:57;;;;;;;7.25;2.13;;;;;;;18.42;66.60;99670.88;5079508;28;20040;-45
2021/08/08 11:42:45;;;;;;;4.90;1.58;;;;;;;18.45;66.01;99670.03;5076989;28;20043;-46
2021/08/08 11:45:47;;;;;;;2.95;1.45;;;;;;;18.60;65.45;99677.03;5078408;28;20052;-45
2021/08/08 11:48:34;;;;;;;3.28;1.20;;;;;;;18.72;65.06;99682.03;5078948;28;20059;-46
2021/08/08 11:51:21;;;;;;;3.63;1.30;;;;;;;18.90;64.94;99678.13;5077447;28;20044;-45
2021/08/08 11:54:09;;;;;;;4.85;2.42;;;;;;;18.88;63.84;99691.81;5079511;28;20158;-43
2021/08/08 11:56:57;;;;;;;7.15;2.85;;;;;;;18.91;63.83;99693.72;5078357;28;20051;-45
2021/08/08 11:59:47;;;;;;;2.70;1.27;;;;;;;18.99;63.13;99698.00;5079482;28;20059;-43
2021/08/08 12:02:35;;;;;;;10.00;1.52;;;;;;;18.95;63.05;99702.88;5075974;28;20085;-44
2021/08/08 12:05:24;;;;;;;4.60;1.40;;;;;;;19.05;63.15;99702.69;5077501;28;20048;-44
2021/08/08 12:08:13;;;;;;;8.90;2.22;;;;;;;19.14;63.40;99702.91;5079194;28;20055;-47
2021/08/08 12:11:01;;;;;;;5.40;1.45;;;;;;;19.06;62.98;99717.53;5077837;28;20051;-51
2021/08/08 12:14:06;;;;;;;3.85;1.60;;;;;;;19.05;59.18;99707.50;5079581;28;20050;-45
2021/08/08 12:17:00;;;;;;;7.82;2.08;;;;;;;19.07;59.32;99713.47;5077948;28;20511;-43
2021/08/08 12:19:49;;;;;;;4.60;1.25;;;;;;;19.07;60.72;99699.44;5077046;28;20051;-43
2021/08/08 12:22:38;;;;;;;6.63;1.30;;;;;;;19.09;60.90;99714.63;5074958;28;20048;-45
2021/08/08 12:25:25;;;;;;;3.67;1.08;;;;;;;19.13;60.64;99704.16;5063969;28;20056;-47
2021/08/08 12:28:23;;;;;;;3.55;1.25;;;;;;;19.14;58.46;99708.53;5076740;28;20472;-46
2021/08/08 12:31:11;;;;;;;5.75;1.58;;;;;;;19.27;60.20;99714.34;5077198;28;20052;-45
2021/08/08 12:33:59;;;;;;;5.32;1.15;;;;;;;19.43;59.85;99722.91;5076230;28;20040;-46
2021/08/08 12:36:46;;;;;;;3.92;1.30;;;;;;;19.49;58.95;99715.53;5078658;28;20051;-51
2021/08/08 12:39:34;;;;;;;2.28;1.08;;;;;;;19.52;58.66;99731.53;5078705;28;20678;-47